Flight Track Log - Related Links

Times and Time Zones

All times are in EDT time to prevent confusion due to time zone crossing. See the UPS1477 flight status page for this flight to view local times or setup timezone preferences in your user account.

Time Position Orientation Groundspeed Altitude Reporting Facility
EDT Latitude Longitude Course Direction KTS MPH feet Rate Location/Type
Fri 12:00:02 AM 39.8000 -82.9490 224° Southwest 166 191 2,000  Level FlightAware ADS-B
Fri 12:00:16 AM 39.7910 -82.9600 223° Southwest 182 209 2,300 1,043 Climbing FlightAware ADS-B
Fri 12:00:48 AM 39.7690 -82.9890 225° Southwest 223 257 2,800 750 Climbing FlightAware ADS-B
Fri 12:01:12 AM 39.7520 -83.0120 226° Southwest 229 264 3,000 1,375 Climbing FlightAware ADS-B
Fri 12:01:36 AM 39.7340 -83.0350 225° Southwest 231 266 3,900 2,192 Climbing FlightAware ADS-B
Fri 12:02:04 AM 39.7100 -83.0650 224° Southwest 258 297 4,900 2,491 Climbing FlightAware ADS-B
Fri 12:02:29 AM 39.6890 -83.0910 224° Southwest 264 304 6,100 3,222 Climbing FlightAware ADS-B
Fri 12:02:58 AM 39.6630 -83.1230 223° Southwest 262 302 7,800 3,164 Climbing FlightAware ADS-B
Fri 12:03:24 AM 39.6400 -83.1520 224° Southwest 264 304 9,000 2,000 Climbing FlightAware ADS-B
Fri 12:04:10 AM 39.5990 -83.2050 225° Southwest 304 350 10,200 1,256 Climbing FlightAware ADS-B
Fri 12:04:50 AM 39.5670 -83.2720 238° Southwest 353 406 10,800 1,929 Climbing FlightAware ADS-B
Fri 12:05:34 AM 39.5340 -83.3610 244° Southwest 374 430 12,900 3,000 Climbing FlightAware ADS-B
Fri 12:06:12 AM 39.5050 -83.4370 244° Southwest 388 447 14,900 2,043 Climbing FlightAware ADS-B
Fri 12:07:08 AM 39.4630 -83.5490 244° Southwest 403 464 16,100 2,739 Climbing FlightAware ADS-B
Fri 12:07:44 AM 39.4270 -83.6410 243° Southwest 427 491 19,100 2,571 Climbing FlightAware ADS-B
Fri 12:08:39 AM 39.3810 -83.7590 243° Southwest 432 497 20,000 587 Climbing FlightAware ADS-B
Fri 12:09:16 AM 39.3460 -83.8520 244° Southwest 432 497 20,000  Level FlightAware ADS-B
Fri 12:09:59 AM 39.3080 -83.9500 243° Southwest 434 499 20,000  Level FlightAware ADS-B
Fri 12:10:41 AM 39.2730 -84.0370 243° Southwest 434 499 20,000  Level FlightAware ADS-B
Fri 12:13:10 AM 39.1580 -84.3290 243° Southwest 434 499 20,000  Level FlightAware ADS-B
Fri 12:13:58 AM 39.1210 -84.4230 243° Southwest 434 499 20,000  Level FlightAware ADS-B
Fri 12:14:41 AM 39.0540 -84.6080 245° Southwest 436 502 20,000  Level FlightAware ADS-B
Fri 12:15:21 AM 39.0150 -84.6960 240° Southwest 435 501 20,000 -194 Level FlightAware ADS-B
Fri 12:16:14 AM 38.9540 -84.7720 224° Southwest 429 494 19,700 -2,082 Descending FlightAware ADS-B
Fri 12:16:59 AM 38.8690 -84.8470 214° Southwest 429 494 16,600 -3,026 Descending FlightAware ADS-B
Fri 12:18:09 AM 38.7640 -84.9460 216° Southwest 406 467 13,900 -1,680 Descending FlightAware ADS-B
Fri 12:18:39 AM 38.7240 -84.9850 217° Southwest 401 461 13,800 -876 Descending FlightAware ADS-B
Fri 12:19:38 AM 38.6360 -85.0710 217° Southwest 385 443 12,600 -1,008 Descending FlightAware ADS-B
Fri 12:20:38 AM 38.5520 -85.1500 216° Southwest 382 440 11,800 -865 Descending FlightAware ADS-B
Fri 12:21:22 AM 38.4860 -85.2140 217° Southwest 349 402 11,100 -951 Descending FlightAware ADS-B
Fri 12:22:00 AM 38.4400 -85.2590 217° Southwest 330 380 10,500 -766 Descending FlightAware ADS-B
Fri 12:22:56 AM 38.3730 -85.3220 216° Southwest 292 336 9,900 -529 Descending FlightAware ADS-B
Fri 12:23:08 AM 38.3620 -85.3330 218° Southwest 286 329 9,900 -833 Level FlightAware ADS-B
Fri 12:23:32 AM 38.3360 -85.3570 216° Southwest 283 326 9,400 -1,333 Descending FlightAware ADS-B
Fri 12:23:44 AM 38.3230 -85.3690 216° Southwest 281 323 9,100 -1,200 Descending FlightAware ADS-B
Fri 12:24:12 AM 38.2940 -85.3970 217° Southwest 278 320 8,600 -1,179 Descending FlightAware ADS-B
Fri 12:24:40 AM 38.2650 -85.4240 216° Southwest 276 318 8,000 -1,393 Descending FlightAware ADS-B
Fri 12:25:08 AM 38.2360 -85.4510 216° Southwest 278 320 7,300 -1,375 Descending FlightAware ADS-B
Fri 12:25:28 AM 38.2160 -85.4720 220° Southwest 275 316 6,900 -973 Descending FlightAware ADS-B
Fri 12:25:45 AM 38.2000 -85.4870 216° Southwest 273 314 6,700 -1,091 Descending FlightAware ADS-B
Fri 12:26:12 AM 38.1710 -85.5130 215° Southwest 272 313 6,100 -1,200 Descending FlightAware ADS-B
Fri 12:26:40 AM 38.1430 -85.5380 215° Southwest 268 308 5,600 -1,286 Descending FlightAware ADS-B
Fri 12:27:08 AM 38.1140 -85.5660 217° Southwest 268 308 4,900 -1,448 Descending FlightAware ADS-B
Fri 12:27:38 AM 38.0820 -85.5830 203° Southwest 269 310 4,200 -1,138 Descending FlightAware ADS-B
Fri 12:28:06 AM 38.0470 -85.5780 174° South 262 302 3,800 -1,071 Descending FlightAware ADS-B
Fri 12:28:34 AM 38.0130 -85.5720 172° South 261 300 3,200 -1,038 Descending FlightAware ADS-B
Fri 12:28:58 AM 37.9840 -85.5680 174° South 253 291 2,900 -486 Descending FlightAware ADS-B
Fri 12:29:11 AM 37.9710 -85.5660 173° South 244 281 2,900  Level FlightAware ADS-B
Fri 12:29:53 AM 37.9350 -85.5810 198° South 208 239 2,900 103 Level FlightAware ADS-B
Fri 12:30:09 AM 37.9320 -85.6010 259° West 207 238 3,000  Climbing FlightAware ADS-B
Fri 12:30:18 AM 37.9330 -85.6100 278° West 208 239 2,900 -300 Descending FlightAware ADS-B
Fri 12:30:29 AM 37.9390 -85.6210 305° West 208 239 2,900  Level FlightAware ADS-B
Fri 12:30:43 AM 37.9510 -85.6350 317° Northwest 206 237 2,900  Level FlightAware ADS-B
Fri 12:31:14 AM 37.9740 -85.6560 324° Northwest 208 239 2,900  Level FlightAware ADS-B
Fri 12:31:39 AM 37.9970 -85.6650 343° North 207 238 2,900  Level FlightAware ADS-B
Fri 12:32:08 AM 38.0230 -85.6750 343° North 206 237 2,900  Level FlightAware ADS-B
Fri 12:32:28 AM 38.0400 -85.6810 344° North 202 232 2,900 -720 Level FlightAware ADS-B
Fri 12:32:58 AM 38.0680 -85.6900 346° North 172 198 2,300 -1,071 Descending FlightAware ADS-B
Fri 12:33:24 AM 38.0870 -85.6970 344° North 157 181 1,900 -857 Descending FlightAware ADS-B
Fri 12:33:54 AM 38.1070 -85.7040 345° North 156 180 1,500 -828 Descending FlightAware ADS-B
Fri 12:34:22 AM 38.1270 -85.7110 345° North 156 180 1,100 -818 Descending FlightAware ADS-B
Fri 12:34:38 AM 38.1390 -85.7150 345° North 156 180 900 -698 Descending FlightAware ADS-B
Fri 12:35:05 AM 38.1570 -85.7210 345° North 153 176 600 -667 Descending FlightAware ADS-B
Fri 12:35:24 AM 38.1700 -85.7250 346° North 150 173 -1,895 Descending FlightAware ADS-B
Fri 12:35:58 AM 38.1830 -85.7300 343° North 27 31  Level FlightAware ADS-B
Fri 12:36:14 AM 38.1840 -85.7320 302° West 17 20  Level FlightAware ADS-B
Fri 12:36:41 AM 38.1830 -85.7330 218° Southwest 31 36  Level FlightAware ADS-B
Fri 12:37:11 AM 38.1790 -85.7340 191° South 32 37  Level FlightAware ADS-B
Fri 12:38:52 AM 38.1780 -85.7360 238° Southwest 15 17  Level FlightAware ADS-B
Fri 12:39:21 AM 38.1790 -85.7390 293° West 19 22  Level FlightAware ADS-B
Fri 12:39:51 AM 38.1800 -85.7420 293° West 19 22  Level FlightAware ADS-B
Fri 12:40:04 AM 38.1800 -85.7430 270° West 25 29  Level FlightAware ADS-B
Fri 12:40:34 AM 38.1790 -85.7440 218° Southwest 29 33  Level FlightAware ADS-B
Fri 12:41:02 AM 38.1770 -85.7430 159° South 18 21  Level FlightAware ADS-B

Login

Don't have an account? Register now (free) for customized features, flight alerts, and more!